Time;durP1;ratioP1;P1;durP2;ratioP2;P2;SDS_P1;SDS_P2;PMS_P1;PMS_P2;Temp;Humidity;BMP_temperature;BMP_pressure;BME280_temperature;BME280_humidity;BME280_pressure;Samples;Min_cycle;Max_cycle;Signal;HPM_P1;HPM_P2
2021/06/18 00:00:50;;;;;;;2.90;1.50;;;;;;;;;;6216046;23;20023;-54
2021/06/18 00:03:17;;;;;;;5.83;1.70;;;;;;;;;;6216139;23;20004;-55
2021/06/18 00:05:44;;;;;;;3.43;1.60;;;;;;;;;;6215646;23;20024;-55
2021/06/18 00:08:11;;;;;;;1.80;1.20;;;;;;;;;;6216109;23;20055;-55
2021/06/18 00:10:38;;;;;;;3.37;1.50;;;;;;;;;;6216008;23;20383;-55
2021/06/18 00:13:04;;;;;;;5.17;1.67;;;;;;;;;;6215947;23;20024;-55
2021/06/18 00:15:31;;;;;;;3.50;1.33;;;;;;;;;;6215935;23;20015;-55
2021/06/18 00:17:58;;;;;;;4.33;1.40;;;;;;;;;;6215875;23;20016;-55
2021/06/18 00:20:25;;;;;;;3.63;1.10;;;;;;;;;;6215924;23;20004;-55
2021/06/18 00:22:52;;;;;;;7.20;1.60;;;;;;;;;;6215995;23;20001;-55
2021/06/18 00:25:18;;;;;;;7.93;1.67;;;;;;;;;;6215835;23;20447;-55
2021/06/18 00:27:45;;;;;;;4.77;1.20;;;;;;;;;;6216179;23;20008;-55
2021/06/18 00:30:12;;;;;;;1.70;1.00;;;;;;;;;;6215922;23;20156;-55
2021/06/18 00:32:39;;;;;;;3.23;1.20;;;;;;;;;;6215748;23;20009;-54
2021/06/18 00:35:07;;;;;;;2.37;1.00;;;;;;;;;;6215690;23;20005;-53
2021/06/18 00:37:34;;;;;;;3.70;1.13;;;;;;;;;;6215604;23;20004;-53
2021/06/18 00:40:01;;;;;;;3.47;0.93;;;;;;;;;;6215724;23;20018;-53
2021/06/18 00:42:28;;;;;;;4.03;1.20;;;;;;;;;;6215208;23;19997;-53
2021/06/18 00:44:55;;;;;;;7.17;1.67;;;;;;;;;;6216024;23;20038;-53
2021/06/18 00:47:23;;;;;;;2.77;1.23;;;;;;;;;;6215560;23;20443;-53
2021/06/18 00:49:51;;;;;;;5.20;1.50;;;;;;;;;;6215570;23;20310;-54
2021/06/18 00:52:18;;;;;;;1.93;1.17;;;;;;;;;;6215611;23;20039;-53
2021/06/18 00:54:46;;;;;;;3.07;1.50;;;;;;;;;;6215652;23;19996;-52
2021/06/18 00:57:14;;;;;;;5.17;1.37;;;;;;;;;;6215721;23;20004;-52
2021/06/18 00:59:40;;;;;;;2.57;1.30;;;;;;;;;;6215523;23;20040;-53
2021/06/18 01:02:08;;;;;;;3.63;1.00;;;;;;;;;;6215419;23;20001;-52
2021/06/18 01:04:36;;;;;;;3.57;1.63;;;;;;;;;;6215493;23;20004;-52
2021/06/18 01:07:04;;;;;;;2.97;0.90;;;;;;;;;;6215182;22;20447;-52
2021/06/18 01:09:35;;;;;;;1.87;0.87;;;;;;;;;;6215516;23;20360;-52
2021/06/18 01:12:05;;;;;;;1.90;0.73;;;;;;;;;;6215435;23;20020;-53
2021/06/18 01:14:51;;;;;;;1.27;0.73;;;;;;;;;;6215368;23;20372;-52
2021/06/18 01:17:17;;;;;;;1.65;0.85;;;;;;;;;;6215331;23;20087;-52
2021/06/18 01:19:59;;;;;;;1.47;0.90;;;;;;;;;;6215311;23;20008;-52
2021/06/18 01:22:26;;;;;;;3.57;0.87;;;;;;;;;;6215290;23;20374;-52
2021/06/18 01:25:32;;;;;;;1.70;0.90;;;;;;;;;;6215277;23;20009;-52
2021/06/18 01:28:17;;;;;;;3.78;1.10;;;;;;;;;;6155266;23;20016;-52
2021/06/18 01:30:45;;;;;;;3.35;0.73;;;;;;;;;;6215484;23;20000;-52
2021/06/18 01:33:15;;;;;;;2.23;0.90;;;;;;;;;;6215253;23;20087;-52
2021/06/18 01:35:43;;;;;;;1.73;0.93;;;;;;;;;;6215121;23;20450;-52
2021/06/18 01:38:12;;;;;;;1.47;0.87;;;;;;;;;;6215207;23;20012;-52
2021/06/18 01:40:39;;;;;;;1.73;0.73;;;;;;;;;;6215314;23;20076;-52
2021/06/18 01:43:07;;;;;;;3.17;0.90;;;;;;;;;;6215324;23;20023;-52
2021/06/18 01:45:36;;;;;;;4.27;0.97;;;;;;;;;;6213510;23;20491;-52
2021/06/18 01:48:06;;;;;;;2.37;1.20;;;;;;;;;;6215301;23;20043;-52
2021/06/18 01:50:33;;;;;;;2.83;1.17;;;;;;;;;;6215228;23;20348;-52
2021/06/18 01:53:34;;;;;;;2.00;1.10;;;;;;;;;;6214919;23;20059;-52
2021/06/18 01:56:06;;;;;;;5.67;1.40;;;;;;;;;;6214320;23;20016;-52
2021/06/18 01:58:46;;;;;;;2.40;1.40;;;;;;;;;;6215184;23;20013;-52
2021/06/18 02:01:17;;;;;;;2.40;1.07;;;;;;;;;;6213935;23;20000;-52
2021/06/18 02:03:52;;;;;;;2.73;1.30;;;;;;;;;;6213485;23;20039;-52
2021/06/18 02:06:26;;;;;;;2.85;0.90;;;;;;;;;;6214596;23;20038;-52
2021/06/18 02:09:01;;;;;;;1.97;0.90;;;;;;;;;;6210199;23;20228;-52
2021/06/18 02:11:33;;;;;;;1.37;0.90;;;;;;;;;;6215114;23;20000;-52
2021/06/18 02:14:04;;;;;;;1.07;0.60;;;;;;;;;;6210905;23;20012;-53
2021/06/18 02:16:39;;;;;;;2.33;0.90;;;;;;;;;;6212492;23;20079;-52
2021/06/18 02:19:11;;;;;;;0.87;0.63;;;;;;;;;;6214606;23;20020;-52
2021/06/18 02:21:38;;;;;;;2.23;0.97;;;;;;;;;;6209554;23;20063;-52
2021/06/18 02:24:05;;;;;;;3.77;1.03;;;;;;;;;;6215013;23;20088;-52
2021/06/18 02:26:32;;;;;;;5.77;1.40;;;;;;;;;;6214946;23;20425;-52
2021/06/18 02:28:59;;;;;;;2.03;1.10;;;;;;;;;;6215096;23;20005;-52
2021/06/18 02:31:28;;;;;;;1.50;0.90;;;;;;;;;;6214995;23;20005;-53
2021/06/18 02:33:54;;;;;;;4.20;1.13;;;;;;;;;;6215040;23;20011;-54
2021/06/18 02:36:22;;;;;;;1.33;0.80;;;;;;;;;;6214858;23;20011;-54
2021/06/18 02:38:50;;;;;;;3.13;0.70;;;;;;;;;;6214807;23;20017;-53
2021/06/18 02:41:17;;;;;;;2.23;0.93;;;;;;;;;;6215107;23;20000;-53
2021/06/18 02:43:44;;;;;;;4.50;1.10;;;;;;;;;;6215032;23;20005;-53
2021/06/18 02:46:17;;;;;;;3.40;0.87;;;;;;;;;;6214868;23;20047;-52
2021/06/18 02:48:47;;;;;;;1.23;0.70;;;;;;;;;;6214910;23;20012;-53
2021/06/18 02:51:32;;;;;;;2.60;1.10;;;;;;;;;;6214880;23;20070;-53
2021/06/18 02:54:02;;;;;;;2.10;1.08;;;;;;;;;;6214825;23;20015;-53
2021/06/18 02:56:35;;;;;;;1.53;0.90;;;;;;;;;;6214901;23;20024;-52
2021/06/18 02:59:21;;;;;;;3.37;1.07;;;;;;;;;;6214732;23;20309;-52
2021/06/18 03:01:47;;;;;;;;;;;;;;;;;;6215407;23;20084;-52
2021/06/18 03:04:22;;;;;;;5.23;1.47;;;;;;;;;;6215104;23;19931;-52
2021/06/18 03:06:48;;;;;;;;;;;;;;;;;;6216943;23;20384;-52
2021/06/18 03:09:16;;;;;;;1.37;0.70;;;;;;;;;;6216534;23;19967;-52
2021/06/18 03:11:45;;;;;;;2.27;0.97;;;;;;;;;;6216263;23;20076;-52
2021/06/18 03:27:15;;;;;;;2.67;1.40;;;;;;;;;;4817186;27;8318619;-54
2021/06/18 03:29:42;;;;;;;4.07;1.27;;;;;;;;;;5090211;28;20382;-54
2021/06/18 03:32:10;;;;;;;3.73;1.70;;;;;;;;;;5090190;28;20474;-54
2021/06/18 03:34:37;;;;;;;3.60;1.83;;;;;;;;;;5090091;28;20501;-54
2021/06/18 03:37:05;;;;;;;5.37;1.97;;;;;;;;;;5090027;28;20039;-53
2021/06/18 03:39:31;;;;;;;5.37;1.70;;;;;;;;;;5090062;28;20361;-53
2021/06/18 03:42:00;;;;;;;4.23;2.30;;;;;;;;;;5090056;28;20024;-53
2021/06/18 03:44:27;;;;;;;3.77;1.83;;;;;;;;;;5090072;28;20043;-54
2021/06/18 03:46:54;;;;;;;3.80;1.80;;;;;;;;;;5089929;28;20390;-53
2021/06/18 03:49:24;;;;;;;7.20;2.70;;;;;;;;;;5089880;28;20111;-53
2021/06/18 03:51:51;;;;;;;4.47;2.33;;;;;;;;;;5089905;28;20031;-53
2021/06/18 03:54:18;;;;;;;3.87;2.33;;;;;;;;;;5089677;28;20084;-54
2021/06/18 03:56:48;;;;;;;4.67;2.20;;;;;;;;;;5089732;28;20478;-53
2021/06/18 03:59:18;;;;;;;4.43;2.13;;;;;;;;;;5089917;28;20382;-53
2021/06/18 04:01:46;;;;;;;2.77;1.50;;;;;;;;;;5089894;28;20107;-53
2021/06/18 04:04:13;;;;;;;3.07;1.77;;;;;;;;;;5089576;28;20425;-53
2021/06/18 04:06:40;;;;;;;4.90;1.73;;;;;;;;;;5089593;28;20386;-54
2021/06/18 04:09:07;;;;;;;4.27;1.87;;;;;;;;;;5089486;28;20436;-54
2021/06/18 04:11:35;;;;;;;4.33;2.03;;;;;;;;;;5089483;28;20081;-53
2021/06/18 04:14:03;;;;;;;3.23;1.67;;;;;;;;;;5089329;28;20028;-54
2021/06/18 04:16:30;;;;;;;3.33;1.90;;;;;;;;;;5089228;28;20194;-53
2021/06/18 04:18:56;;;;;;;4.63;1.80;;;;;;;;;;5089278;28;20036;-53
2021/06/18 04:21:24;;;;;;;4.17;1.80;;;;;;;;;;5089262;28;20115;-53
2021/06/18 04:23:51;;;;;;;3.10;1.43;;;;;;;;;;5089262;28;20124;-54
2021/06/18 04:26:23;;;;;;;6.20;1.80;;;;;;;;;;5068629;28;20127;-53
2021/06/18 04:28:50;;;;;;;5.57;1.47;;;;;;;;;;5055502;28;20041;-53
2021/06/18 04:31:18;;;;;;;3.60;2.00;;;;;;;;;;5055638;28;20475;-53
2021/06/18 04:33:44;;;;;;;6.20;1.83;;;;;;;;;;5055471;28;20099;-53
2021/06/18 04:36:11;;;;;;;4.17;2.13;;;;;;;;;;5055347;28;20108;-53
2021/06/18 04:38:39;;;;;;;3.23;1.80;;;;;;;;;;5055398;28;20490;-53
2021/06/18 04:41:06;;;;;;;4.53;2.00;;;;;;;;;;5055785;28;20033;-53
2021/06/18 04:43:33;;;;;;;3.10;1.80;;;;;;;;;;5055382;28;20112;-53
2021/06/18 04:46:00;;;;;;;3.03;1.97;;;;;;;;;;5055472;28;20036;-53
2021/06/18 04:48:28;;;;;;;2.50;1.57;;;;;;;;;;5055231;28;20387;-53
2021/06/18 04:50:55;;;;;;;3.17;1.70;;;;;;;;;;5055110;28;20028;-53
2021/06/18 04:53:22;;;;;;;2.13;1.57;;;;;;;;;;5055097;28;20083;-53
2021/06/18 04:55:49;;;;;;;3.63;2.27;;;;;;;;;;5055119;28;20033;-53
2021/06/18 04:58:16;;;;;;;3.50;1.90;;;;;;;;;;5055120;28;20397;-53
2021/06/18 05:00:43;;;;;;;3.53;1.80;;;;;;;;;;5055019;28;20031;-53
2021/06/18 05:03:10;;;;;;;5.17;1.53;;;;;;;;;;5055058;28;20541;-53
2021/06/18 05:05:37;;;;;;;5.90;1.97;;;;;;;;;;5055003;28;20083;-53
2021/06/18 05:08:04;;;;;;;3.97;1.60;;;;;;;;;;5054771;28;20025;-53
2021/06/18 05:10:30;;;;;;;3.67;1.67;;;;;;;;;;5054779;28;20029;-53
2021/06/18 05:12:57;;;;;;;12.40;2.60;;;;;;;;;;5054828;28;20106;-53
2021/06/18 05:15:24;;;;;;;5.57;1.80;;;;;;;;;;5054597;28;20041;-53
2021/06/18 05:17:51;;;;;;;4.60;1.77;;;;;;;;;;5054631;28;20025;-53
2021/06/18 05:20:18;;;;;;;2.90;1.50;;;;;;;;;;5054764;28;20025;-53
2021/06/18 05:22:45;;;;;;;4.00;1.87;;;;;;;;;;5054704;28;20032;-53
2021/06/18 05:25:12;;;;;;;2.60;1.80;;;;;;;;;;5054255;28;20043;-53
2021/06/18 05:27:39;;;;;;;3.97;1.70;;;;;;;;;;5054490;28;20033;-53
2021/06/18 05:30:06;;;;;;;4.03;1.93;;;;;;;;;;5054471;28;20033;-53
2021/06/18 05:32:33;;;;;;;4.77;1.87;;;;;;;;;;5054509;28;20119;-53
2021/06/18 05:35:00;;;;;;;2.57;1.60;;;;;;;;;;5036389;28;20048;-53
2021/06/18 05:37:27;;;;;;;5.10;1.70;;;;;;;;;;5053946;28;20382;-53
2021/06/18 05:39:54;;;;;;;2.53;1.70;;;;;;;;;;5053541;28;20091;-52
2021/06/18 05:42:20;;;;;;;2.27;1.60;;;;;;;;;;5054231;28;20033;-53
2021/06/18 05:44:47;;;;;;;4.23;2.10;;;;;;;;;;5054273;28;20379;-53
2021/06/18 05:47:14;;;;;;;4.40;1.70;;;;;;;;;;5054331;28;20053;-53
2021/06/18 05:49:41;;;;;;;6.97;1.63;;;;;;;;;;5054170;28;20029;-53
2021/06/18 05:52:07;;;;;;;4.57;1.90;;;;;;;;;;5054125;28;20021;-53
2021/06/18 05:54:34;;;;;;;5.30;2.03;;;;;;;;;;5053851;28;20021;-54
2021/06/18 05:57:01;;;;;;;3.27;2.10;;;;;;;;;;5053824;28;20048;-53
2021/06/18 05:59:28;;;;;;;4.20;2.20;;;;;;;;;;5054028;28;20048;-53
2021/06/18 06:01:54;;;;;;;3.63;2.13;;;;;;;;;;5053925;28;20025;-53
2021/06/18 06:04:21;;;;;;;3.00;1.97;;;;;;;;;;5053765;28;20032;-53
2021/06/18 06:06:48;;;;;;;3.53;2.20;;;;;;;;;;5053866;28;20104;-53
2021/06/18 06:09:15;;;;;;;4.57;2.40;;;;;;;;;;5053832;28;20104;-53
2021/06/18 06:11:42;;;;;;;3.10;2.03;;;;;;;;;;5053645;28;20111;-53
2021/06/18 06:14:15;;;;;;;2.80;1.80;;;;;;;;;;5053662;28;20383;-53
2021/06/18 06:16:42;;;;;;;3.07;1.70;;;;;;;;;;5053520;28;20040;-53
2021/06/18 06:19:09;;;;;;;3.07;2.10;;;;;;;;;;5053585;28;20479;-52
2021/06/18 06:21:36;;;;;;;3.33;1.90;;;;;;;;;;5053562;28;20187;-53
2021/06/18 06:24:03;;;;;;;3.07;1.47;;;;;;;;;;5053688;28;20079;-53
2021/06/18 06:26:29;;;;;;;3.53;1.30;;;;;;;;;;5052899;28;20040;-53
2021/06/18 06:28:56;;;;;;;1.83;1.20;;;;;;;;;;5053415;28;20127;-53
2021/06/18 06:31:23;;;;;;;3.47;1.60;;;;;;;;;;5053700;28;20086;-53
2021/06/18 06:33:50;;;;;;;4.27;1.60;;;;;;;;;;5053249;28;20452;-53
2021/06/18 06:36:16;;;;;;;5.90;1.53;;;;;;;;;;5053097;28;20380;-53
2021/06/18 06:38:43;;;;;;;1.97;1.30;;;;;;;;;;5053403;28;20345;-53
2021/06/18 06:41:10;;;;;;;2.87;1.60;;;;;;;;;;5053139;28;20025;-53
2021/06/18 06:43:37;;;;;;;2.83;1.43;;;;;;;;;;5053090;28;20087;-53
2021/06/18 06:46:04;;;;;;;4.13;1.20;;;;;;;;;;5053088;28;20025;-53
2021/06/18 06:48:31;;;;;;;2.07;1.47;;;;;;;;;;5053055;28;20029;-53
2021/06/18 06:50:58;;;;;;;2.40;1.47;;;;;;;;;;5052837;28;20025;-53
2021/06/18 06:53:25;;;;;;;2.50;1.30;;;;;;;;;;5052980;28;20021;-53
2021/06/18 06:55:51;;;;;;;2.73;1.60;;;;;;;;;;5053066;28;20379;-53
2021/06/18 06:58:18;;;;;;;3.97;1.70;;;;;;;;;;5053019;28;20075;-53
2021/06/18 07:00:45;;;;;;;3.23;1.60;;;;;;;;;;5052973;28;20051;-53
2021/06/18 07:03:12;;;;;;;2.80;1.43;;;;;;;;;;5052859;28;20094;-53
2021/06/18 07:05:39;;;;;;;5.40;2.10;;;;;;;;;;5052890;28;20033;-53
2021/06/18 07:08:15;;;;;;;7.27;2.00;;;;;;;;;;5052749;28;20025;-53
2021/06/18 07:10:42;;;;;;;3.97;1.57;;;;;;;;;;5052883;28;20021;-53
2021/06/18 07:13:09;;;;;;;2.50;1.50;;;;;;;;;;5052839;28;20025;-53
2021/06/18 07:15:36;;;;;;;2.10;1.30;;;;;;;;;;5052856;28;20068;-53
2021/06/18 07:18:03;;;;;;;5.07;1.30;;;;;;;;;;5052815;28;20017;-53
2021/06/18 07:20:29;;;;;;;4.23;1.80;;;;;;;;;;5052600;28;20033;-53
2021/06/18 07:22:56;;;;;;;2.67;1.33;;;;;;;;;;5052665;28;20021;-53
2021/06/18 07:25:23;;;;;;;3.97;2.17;;;;;;;;;;5052266;28;20052;-53
2021/06/18 07:27:50;;;;;;;3.37;1.90;;;;;;;;;;5052559;28;20465;-53
2021/06/18 07:30:17;;;;;;;4.03;1.63;;;;;;;;;;5052570;28;20033;-53
2021/06/18 07:32:44;;;;;;;5.30;2.00;;;;;;;;;;5052591;28;20026;-54
2021/06/18 07:35:11;;;;;;;3.33;2.47;;;;;;;;;;5052414;28;20472;-53
2021/06/18 07:37:38;;;;;;;4.60;2.33;;;;;;;;;;5052427;28;20055;-54
2021/06/18 07:40:05;;;;;;;4.30;1.90;;;;;;;;;;5052483;28;20025;-55
2021/06/18 07:42:32;;;;;;;3.17;1.73;;;;;;;;;;5052483;28;20021;-54
2021/06/18 07:44:59;;;;;;;2.17;1.37;;;;;;;;;;5052495;28;20078;-55
2021/06/18 07:47:26;;;;;;;3.77;1.63;;;;;;;;;;5052330;28;20021;-55
2021/06/18 07:49:52;;;;;;;4.03;1.50;;;;;;;;;;5052326;28;20040;-55
2021/06/18 07:52:20;;;;;;;4.43;1.50;;;;;;;;;;5052318;28;20033;-55
2021/06/18 07:54:47;;;;;;;2.17;1.30;;;;;;;;;;5052169;28;20025;-55
2021/06/18 07:57:16;;;;;;;3.70;2.60;;;;;;;;;;5052337;28;20063;-56
2021/06/18 07:59:43;;;;;;;3.13;1.43;;;;;;;;;;5052277;28;20064;-55
2021/06/18 08:02:09;;;;;;;3.53;1.30;;;;;;;;;;5053938;28;20025;-55
2021/06/18 08:04:36;;;;;;;2.47;1.40;;;;;;;;;;5056010;28;20108;-55
2021/06/18 08:07:03;;;;;;;5.43;1.37;;;;;;;;;;5055937;28;20079;-55
2021/06/18 08:09:30;;;;;;;2.47;1.30;;;;;;;;;;5055876;28;20503;-55
2021/06/18 08:11:56;;;;;;;2.47;1.30;;;;;;;;;;5056010;28;20104;-55
2021/06/18 08:14:23;;;;;;;3.03;1.50;;;;;;;;;;5055742;28;20091;-55
2021/06/18 08:16:50;;;;;;;3.20;1.60;;;;;;;;;;5055802;28;20121;-55
2021/06/18 08:19:17;;;;;;;3.03;1.60;;;;;;;;;;5055804;28;20094;-55
2021/06/18 08:21:44;;;;;;;2.40;1.47;;;;;;;;;;5055734;28;20045;-55
2021/06/18 08:24:11;;;;;;;3.30;1.63;;;;;;;;;;5055606;28;20036;-55
2021/06/18 08:26:37;;;;;;;3.63;1.50;;;;;;;;;;5055308;28;20045;-55
2021/06/18 08:29:04;;;;;;;3.37;1.50;;;;;;;;;;5055665;28;20025;-55
2021/06/18 08:31:31;;;;;;;2.50;1.70;;;;;;;;;;5055569;28;20025;-55
2021/06/18 08:33:58;;;;;;;4.00;1.60;;;;;;;;;;5055475;28;20029;-55
2021/06/18 08:36:25;;;;;;;2.97;1.63;;;;;;;;;;5055389;28;20033;-55
2021/06/18 08:38:52;;;;;;;2.03;1.27;;;;;;;;;;5055495;28;20079;-55
2021/06/18 08:41:18;;;;;;;4.73;2.23;;;;;;;;;;5055368;28;20041;-55
2021/06/18 08:43:48;;;;;;;3.27;1.63;;;;;;;;;;5055417;28;20017;-55
2021/06/18 08:46:15;;;;;;;5.53;1.90;;;;;;;;;;5055170;28;20032;-55
2021/06/18 08:48:41;;;;;;;4.53;1.60;;;;;;;;;;5055308;28;20479;-55
2021/06/18 08:51:08;;;;;;;2.27;1.40;;;;;;;;;;5055218;28;20084;-55
2021/06/18 08:53:36;;;;;;;2.83;1.50;;;;;;;;;;5055212;28;20104;-54
2021/06/18 08:56:07;;;;;;;6.20;1.30;;;;;;;;;;5055026;28;20048;-54
2021/06/18 08:58:34;;;;;;;4.67;1.50;;;;;;;;;;5055078;28;20021;-55
2021/06/18 09:01:00;;;;;;;3.23;1.20;;;;;;;;;;5054894;28;20451;-54
2021/06/18 09:03:35;;;;;;;4.53;1.30;;;;;;;;;;5054991;28;20067;-55
2021/06/18 09:06:24;;;;;;;2.15;1.23;;;;;;;;;;5054977;28;20104;-55
2021/06/18 09:09:09;;;;;;;2.33;1.40;;;;;;;;;;5054947;28;20029;-55
2021/06/18 09:11:40;;;;;;;4.15;1.50;;;;;;;;;;5054894;28;20115;-55
2021/06/18 09:14:17;;;;;;;2.03;1.50;;;;;;;;;;5054677;28;20040;-54
2021/06/18 09:16:44;;;;;;;3.50;1.20;;;;;;;;;;5054664;28;20491;-54
2021/06/18 09:19:26;;;;;;;9.17;2.10;;;;;;;;;;5054790;28;20024;-54
2021/06/18 09:22:00;;;;;;;3.93;1.50;;;;;;;;;;5054663;28;20031;-54
2021/06/18 09:24:28;;;;;;;3.70;1.53;;;;;;;;;;5054428;28;20021;-54
2021/06/18 09:26:55;;;;;;;5.30;1.30;;;;;;;;;;5054061;28;20076;-54
2021/06/18 09:29:22;;;;;;;4.73;1.50;;;;;;;;;;5054363;28;20106;-54
2021/06/18 09:31:50;;;;;;;3.47;1.10;;;;;;;;;;5054441;28;20035;-54
2021/06/18 09:34:39;;;;;;;2.40;1.30;;;;;;;;;;5054313;28;20029;-54
2021/06/18 09:37:17;;;;;;;3.33;1.03;;;;;;;;;;5039288;28;20075;-54
2021/06/18 09:40:03;;;;;;;4.37;1.50;;;;;;;;;;5054223;28;20387;-54
2021/06/18 09:42:30;;;;;;;3.10;1.37;;;;;;;;;;5054147;28;20044;-54
2021/06/18 09:45:01;;;;;;;2.20;1.30;;;;;;;;;;5054218;28;20492;-54
2021/06/18 09:47:29;;;;;;;2.20;1.30;;;;;;;;;;5054009;28;20383;-54
2021/06/18 09:49:56;;;;;;;2.47;1.20;;;;;;;;;;5036186;28;20079;-54
2021/06/18 09:52:25;;;;;;;7.23;1.73;;;;;;;;;;5053979;28;20029;-54
2021/06/18 09:54:55;;;;;;;2.83;1.40;;;;;;;;;;5053799;28;20036;-54
2021/06/18 09:57:36;;;;;;;4.20;1.10;;;;;;;;;;5053753;28;20029;-54
2021/06/18 10:00:05;;;;;;;1.67;1.20;;;;;;;;;;5053849;28;20057;-54
2021/06/18 10:02:38;;;;;;;1.57;1.00;;;;;;;;;;5053919;28;20345;-54
2021/06/18 10:05:06;;;;;;;3.87;1.00;;;;;;;;;;5053590;28;20025;-54
2021/06/18 10:07:34;;;;;;;3.70;1.10;;;;;;;;;;5053671;28;20029;-54
2021/06/18 10:10:08;;;;;;;4.00;0.97;;;;;;;;;;5053531;28;20029;-54
2021/06/18 10:12:35;;;;;;;6.85;1.10;;;;;;;;;;5053569;28;20021;-54
2021/06/18 10:15:06;;;;;;;2.50;1.93;;;;;;;;;;5053421;28;20033;-54
2021/06/18 10:17:34;;;;;;;5.87;3.10;;;;;;;;;;5053371;28;20025;-54
2021/06/18 10:20:01;;;;;;;3.00;1.17;;;;;;;;;;5053394;28;20104;-54
2021/06/18 10:22:28;;;;;;;3.57;1.00;;;;;;;;;;5053439;28;20108;-54
2021/06/18 10:24:59;;;;;;;1.10;0.80;;;;;;;;;;5052744;28;20036;-54
2021/06/18 10:27:34;;;;;;;3.90;0.93;;;;;;;;;;5052908;28;20068;-54
2021/06/18 10:30:20;;;;;;;2.55;1.20;;;;;;;;;;5053314;28;20025;-54
2021/06/18 10:32:46;;;;;;;2.25;1.02;;;;;;;;;;5053304;28;20025;-54
2021/06/18 10:35:33;;;;;;;1.70;1.00;;;;;;;;;;5053135;28;20087;-54
2021/06/18 10:38:00;;;;;;;2.40;1.17;;;;;;;;;;5053090;28;20237;-54
2021/06/18 10:40:42;;;;;;;1.53;1.00;;;;;;;;;;5053041;28;20036;-55
2021/06/18 10:43:14;;;;;;;2.63;1.10;;;;;;;;;;5053102;28;20152;-56
2021/06/18 10:46:05;;;;;;;3.07;1.10;;;;;;;;;;5052929;28;20063;-55
2021/06/18 10:48:50;;;;;;;1.77;1.10;;;;;;;;;;5053010;28;20036;-55
2021/06/18 10:51:38;;;;;;;3.00;1.20;;;;;;;;;;5053077;28;20475;-55
2021/06/18 10:54:17;;;;;;;4.20;1.00;;;;;;;;;;5052995;28;20108;-56
2021/06/18 10:56:46;;;;;;;1.47;1.10;;;;;;;;;;5052734;28;20037;-55
2021/06/18 10:59:20;;;;;;;2.07;1.43;;;;;;;;;;5052714;28;20075;-56
2021/06/18 11:01:48;;;;;;;3.43;1.47;;;;;;;;;;5052824;28;20025;-57
2021/06/18 11:04:15;;;;;;;4.57;1.10;;;;;;;;;;5052688;28;20360;-55
2021/06/18 11:06:42;;;;;;;2.33;1.20;;;;;;;;;;5035204;28;20029;-55
2021/06/18 11:09:09;;;;;;;1.20;0.83;;;;;;;;;;5052686;28;20036;-55
2021/06/18 11:11:36;;;;;;;1.03;0.90;;;;;;;;;;5052695;28;20029;-55
2021/06/18 11:14:04;;;;;;;3.20;1.40;;;;;;;;;;5052661;28;20033;-55
2021/06/18 11:16:35;;;;;;;2.17;1.37;;;;;;;;;;5052552;28;20040;-55
2021/06/18 11:19:20;;;;;;;1.83;1.00;;;;;;;;;;5052624;28;20021;-55
2021/06/18 11:21:46;;;;;;;1.70;1.13;;;;;;;;;;5052589;28;20032;-54
2021/06/18 11:24:32;;;;;;;2.97;0.97;;;;;;;;;;5052856;28;20033;-55
2021/06/18 11:26:58;;;;;;;;;;;;;;;;;;5052674;28;20049;-55
2021/06/18 11:29:28;;;;;;;1.60;0.90;;;;;;;;;;5052460;28;19958;-55
2021/06/18 11:31:55;;;;;;;1.70;1.00;;;;;;;;;;5052568;28;20371;-55
2021/06/18 11:34:26;;;;;;;2.00;0.80;;;;;;;;;;5052547;28;20412;-55
2021/06/18 11:36:53;;;;;;;3.60;1.00;;;;;;;;;;5053803;28;20029;-55
2021/06/18 11:39:21;;;;;;;2.00;0.80;;;;;;;;;;5056500;28;20388;-55
2021/06/18 11:41:49;;;;;;;2.20;0.80;;;;;;;;;;5056492;28;20108;-55
2021/06/18 11:44:19;;;;;;;1.27;0.80;;;;;;;;;;5056367;28;20028;-55
2021/06/18 11:46:46;;;;;;;2.70;0.80;;;;;;;;;;5056233;28;20476;-55
2021/06/18 11:49:15;;;;;;;1.03;0.73;;;;;;;;;;5056462;28;20100;-55
2021/06/18 11:51:42;;;;;;;1.33;0.70;;;;;;;;;;5056233;28;20353;-55
2021/06/18 11:54:09;;;;;;;0.77;0.60;;;;;;;;;;5056452;28;20029;-55
2021/06/18 11:56:36;;;;;;;1.87;0.90;;;;;;;;;;5056149;28;20037;-55
2021/06/18 11:59:12;;;;;;;1.30;0.70;;;;;;;;;;5056147;28;20099;-55
2021/06/18 12:01:39;;;;;;;1.70;0.90;;;;;;;;;;5056112;28;20021;-55
2021/06/18 12:04:14;;;;;;;1.10;0.83;;;;;;;;;;5055978;28;20025;-55
2021/06/18 12:06:40;;;;;;;3.13;0.98;;;;;;;;;;5056095;28;20383;-54
2021/06/18 12:09:13;;;;;;;1.17;0.70;;;;;;;;;;5055871;28;20112;-55
2021/06/18 12:11:48;;;;;;;3.53;0.83;;;;;;;;;;5055960;28;20050;-55
2021/06/18 12:14:16;;;;;;;1.20;0.60;;;;;;;;;;5055794;28;20021;-55
2021/06/18 12:16:44;;;;;;;1.60;0.90;;;;;;;;;;5055783;28;20064;-55
2021/06/18 12:19:26;;;;;;;0.97;0.77;;;;;;;;;;5055798;28;20215;-55
2021/06/18 12:21:59;;;;;;;1.07;0.70;;;;;;;;;;5055678;28;20025;-54
2021/06/18 12:24:27;;;;;;;1.70;1.10;;;;;;;;;;5055496;28;20021;-55
2021/06/18 12:26:54;;;;;;;1.23;0.77;;;;;;;;;;5055342;28;20067;-55
2021/06/18 12:29:20;;;;;;;1.10;1.00;;;;;;;;;;5055579;28;20033;-54
2021/06/18 12:31:49;;;;;;;4.37;1.37;;;;;;;;;;5055448;28;20108;-54
2021/06/18 12:34:16;;;;;;;2.93;1.30;;;;;;;;;;5056008;28;20057;-54
2021/06/18 12:36:42;;;;;;;1.73;0.93;;;;;;;;;;5055283;28;20029;-54
2021/06/18 12:39:13;;;;;;;2.17;1.37;;;;;;;;;;5055525;28;20044;-54
2021/06/18 12:41:40;;;;;;;1.27;0.97;;;;;;;;;;5055335;28;20390;-54
2021/06/18 12:44:09;;;;;;;2.10;1.10;;;;;;;;;;5055425;28;20051;-54
2021/06/18 12:46:36;;;;;;;6.37;1.00;;;;;;;;;;5055267;28;20021;-54
2021/06/18 12:49:07;;;;;;;1.90;1.13;;;;;;;;;;5054697;28;20029;-54
2021/06/18 12:51:34;;;;;;;2.83;0.90;;;;;;;;;;5055170;28;20048;-54
2021/06/18 12:54:08;;;;;;;1.50;1.10;;;;;;;;;;5055075;28;20104;-54
2021/06/18 12:56:42;;;;;;;2.92;1.10;;;;;;;;;;5055015;28;20033;-54
2021/06/18 12:59:10;;;;;;;3.47;1.00;;;;;;;;;;5055003;28;20456;-54
2021/06/18 13:01:39;;;;;;;4.17;1.30;;;;;;;;;;5054934;28;20060;-54
2021/06/18 13:04:07;;;;;;;1.23;1.00;;;;;;;;;;5054968;28;20029;-54
2021/06/18 13:06:45;;;;;;;1.87;1.20;;;;;;;;;;5055214;28;20464;-55
2021/06/18 13:09:13;;;;;;;1.97;1.10;;;;;;;;;;5054881;28;20028;-55
2021/06/18 13:11:49;;;;;;;5.67;1.57;;;;;;;;;;5054808;28;20029;-56
2021/06/18 13:14:22;;;;;;;5.23;1.60;;;;;;;;;;5054753;28;20025;-56
2021/06/18 13:16:51;;;;;;;2.90;1.50;;;;;;;;;;5054654;28;20295;-56
2021/06/18 13:19:21;;;;;;;3.00;1.67;;;;;;;;;;5054998;28;20364;-56
2021/06/18 13:21:50;;;;;;;3.60;1.57;;;;;;;;;;5054848;28;20025;-56
2021/06/18 13:24:19;;;;;;;3.20;2.20;;;;;;;;;;5054412;28;20044;-55
2021/06/18 13:26:46;;;;;;;4.40;3.17;;;;;;;;;;5054194;28;20052;-56
2021/06/18 13:29:17;;;;;;;3.47;2.87;;;;;;;;;;5054455;28;20021;-55
2021/06/18 13:31:45;;;;;;;5.90;3.97;;;;;;;;;;5054306;28;20051;-55
2021/06/18 13:34:13;;;;;;;6.77;3.97;;;;;;;;;;5054311;28;20032;-55
2021/06/18 13:36:41;;;;;;;5.77;3.97;;;;;;;;;;5054128;28;20535;-55
2021/06/18 13:39:28;;;;;;;4.70;3.70;;;;;;;;;;5054298;28;20032;-55
2021/06/18 13:41:54;;;;;;;4.60;3.30;;;;;;;;;;5054166;28;20017;-55
2021/06/18 13:44:21;;;;;;;5.20;3.17;;;;;;;;;;5054213;28;20029;-56
2021/06/18 13:46:48;;;;;;;3.33;2.40;;;;;;;;;;5054088;28;20025;-55
2021/06/18 13:49:17;;;;;;;3.90;2.57;;;;;;;;;;5054000;28;20028;-55
2021/06/18 13:51:44;;;;;;;6.63;2.50;;;;;;;;;;5053902;28;20373;-55
2021/06/18 13:54:11;;;;;;;3.80;2.40;;;;;;;;;;5054156;28;20392;-55
2021/06/18 13:56:39;;;;;;;3.80;2.10;;;;;;;;;;5053753;28;20426;-55
2021/06/18 13:59:09;;;;;;;3.77;2.17;;;;;;;;;;5053093;28;20017;-55
2021/06/18 14:01:37;;;;;;;3.10;1.80;;;;;;;;;;5053772;28;20021;-55
2021/06/18 14:04:06;;;;;;;4.50;1.90;;;;;;;;;;5053710;28;20083;-55
2021/06/18 14:06:33;;;;;;;2.73;1.63;;;;;;;;;;5053875;28;20090;-56
2021/06/18 14:09:13;;;;;;;2.70;1.70;;;;;;;;;;5053641;28;20043;-55
2021/06/18 14:11:40;;;;;;;3.10;1.97;;;;;;;;;;5053628;28;20044;-56
2021/06/18 14:14:08;;;;;;;5.60;2.10;;;;;;;;;;5053555;28;20056;-56
2021/06/18 14:16:46;;;;;;;4.23;1.73;;;;;;;;;;5035545;28;20041;-56
2021/06/18 14:19:13;;;;;;;5.50;2.40;;;;;;;;;;5053568;28;20029;-55
2021/06/18 14:21:40;;;;;;;21.03;2.53;;;;;;;;;;5053427;28;20428;-55
2021/06/18 14:24:07;;;;;;;3.73;2.47;;;;;;;;;;5053492;28;20028;-55
2021/06/18 14:26:34;;;;;;;3.67;2.33;;;;;;;;;;5052930;28;20053;-55
2021/06/18 14:29:01;;;;;;;3.63;1.90;;;;;;;;;;5053325;28;20029;-54
2021/06/18 14:31:28;;;;;;;3.10;1.90;;;;;;;;;;5053280;28;20057;-54
2021/06/18 14:33:55;;;;;;;2.97;1.60;;;;;;;;;;5053204;28;20109;-54
2021/06/18 14:36:30;;;;;;;2.93;1.90;;;;;;;;;;5051885;28;20057;-54
2021/06/18 14:39:00;;;;;;;4.80;1.80;;;;;;;;;;5035201;28;20537;-54
2021/06/18 14:41:39;;;;;;;2.93;1.40;;;;;;;;;;5053007;28;20032;-54
2021/06/18 14:44:08;;;;;;;4.83;2.10;;;;;;;;;;5052757;28;20033;-54
2021/06/18 14:46:43;;;;;;;3.10;2.20;;;;;;;;;;5052659;28;20410;-54
2021/06/18 14:49:16;;;;;;;4.43;2.20;;;;;;;;;;5052866;28;20091;-54
2021/06/18 14:51:55;;;;;;;3.47;2.50;;;;;;;;;;5053037;28;20027;-54
2021/06/18 14:54:40;;;;;;;4.57;2.27;;;;;;;;;;5051655;28;20064;-54
2021/06/18 14:57:14;;;;;;;4.95;3.17;;;;;;;;;;5053007;28;20033;-54
2021/06/18 14:59:42;;;;;;;4.00;2.60;;;;;;;;;;5052813;28;20083;-54
2021/06/18 15:02:35;;;;;;;4.60;2.83;;;;;;;;;;5053025;28;20025;-54
2021/06/18 15:05:11;;;;;;;4.17;2.80;;;;;;;;;;5052741;28;20426;-54
2021/06/18 15:07:45;;;;;;;4.20;2.90;;;;;;;;;;5052529;28;20041;-54
2021/06/18 15:10:16;;;;;;;5.55;3.13;;;;;;;;;;5052236;28;20033;-53